sensor_id;sensor_type;location;lat;lon;timestamp;temperature;humidity
14016;DHT22;7083;48.854;9.158;2024-02-15T00:01:02;10.80;99.90
14016;DHT22;7083;48.854;9.158;2024-02-15T00:03:29;10.90;99.90
14016;DHT22;7083;48.854;9.158;2024-02-15T00:05:58;10.90;99.90
14016;DHT22;7083;48.854;9.158;2024-02-15T00:08:24;11.00;99.90
14016;DHT22;7083;48.854;9.158;2024-02-15T00:10:52;11.00;99.90
14016;DHT22;7083;48.854;9.158;2024-02-15T00:13:19;11.00;99.90
14016;DHT22;7083;48.854;9.158;2024-02-15T00:15:45;12.10;99.90
14016;DHT22;7083;48.854;9.158;2024-02-15T00:18:13;11.10;99.90
14016;DHT22;7083;48.854;9.158;2024-02-15T00:20:40;11.10;99.90
14016;DHT22;7083;48.854;9.158;2024-02-15T00:23:08;11.10;99.90
14016;DHT22;7083;48.854;9.158;2024-02-15T00:25:35;11.20;99.90
14016;DHT22;7083;48.854;9.158;2024-02-15T00:28:02;11.20;99.90
14016;DHT22;7083;48.854;9.158;2024-02-15T00:30:28;11.20;99.90
14016;DHT22;7083;48.854;9.158;2024-02-15T00:32:57;11.20;99.90
14016;DHT22;7083;48.854;9.158;2024-02-15T00:35:23;11.20;99.90
14016;DHT22;7083;48.854;9.158;2024-02-15T00:37:51;11.20;99.90
14016;DHT22;7083;48.854;9.158;2024-02-15T00:40:20;11.10;99.90
14016;DHT22;7083;48.854;9.158;2024-02-15T00:42:46;11.10;99.90
14016;DHT22;7083;48.854;9.158;2024-02-15T00:45:13;11.10;99.90
14016;DHT22;7083;48.854;9.158;2024-02-15T00:47:40;11.00;99.90
14016;DHT22;7083;48.854;9.158;2024-02-15T00:50:08;11.00;99.90
14016;DHT22;7083;48.854;9.158;2024-02-15T00:52:34;10.90;99.90
14016;DHT22;7083;48.854;9.158;2024-02-15T00:55:01;10.90;99.90
14016;DHT22;7083;48.854;9.158;2024-02-15T00:57:29;10.80;99.90
14016;DHT22;7083;48.854;9.158;2024-02-15T00:59:56;10.90;99.90
14016;DHT22;7083;48.854;9.158;2024-02-15T01:02:23;10.90;99.90
14016;DHT22;7083;48.854;9.158;2024-02-15T01:04:51;10.90;99.90
14016;DHT22;7083;48.854;9.158;2024-02-15T01:07:18;10.90;99.90
14016;DHT22;7083;48.854;9.158;2024-02-15T01:09:45;10.90;99.90
14016;DHT22;7083;48.854;9.158;2024-02-15T01:12:12;10.90;99.90
14016;DHT22;7083;48.854;9.158;2024-02-15T01:14:40;10.90;99.90
14016;DHT22;7083;48.854;9.158;2024-02-15T01:17:09;10.80;99.90
14016;DHT22;7083;48.854;9.158;2024-02-15T01:19:35;10.70;99.90
14016;DHT22;7083;48.854;9.158;2024-02-15T01:22:02;10.70;99.90
14016;DHT22;7083;48.854;9.158;2024-02-15T01:24:29;10.60;99.90
14016;DHT22;7083;48.854;9.158;2024-02-15T01:26:56;10.50;99.90
14016;DHT22;7083;48.854;9.158;2024-02-15T01:29:23;10.30;99.90
14016;DHT22;7083;48.854;9.158;2024-02-15T01:31:52;10.10;99.90
14016;DHT22;7083;48.854;9.158;2024-02-15T01:34:19;10.00;99.90
14016;DHT22;7083;48.854;9.158;2024-02-15T01:36:48;9.80;99.90
14016;DHT22;7083;48.854;9.158;2024-02-15T01:39:14;9.60;99.90
14016;DHT22;7083;48.854;9.158;2024-02-15T01:41:46;9.40;99.90
14016;DHT22;7083;48.854;9.158;2024-02-15T01:44:13;9.30;99.90
14016;DHT22;7083;48.854;9.158;2024-02-15T01:46:40;9.10;99.90
14016;DHT22;7083;48.854;9.158;2024-02-15T01:49:08;9.00;99.90
14016;DHT22;7083;48.854;9.158;2024-02-15T01:51:36;8.90;99.90
14016;DHT22;7083;48.854;9.158;2024-02-15T01:54:03;8.70;99.90
14016;DHT22;7083;48.854;9.158;2024-02-15T01:56:31;8.60;99.90
14016;DHT22;7083;48.854;9.158;2024-02-15T01:58:58;8.40;99.90
14016;DHT22;7083;48.854;9.158;2024-02-15T02:01:27;8.40;99.90
14016;DHT22;7083;48.854;9.158;2024-02-15T02:03:55;8.30;99.90
14016;DHT22;7083;48.854;9.158;2024-02-15T02:06:24;8.20;99.90
14016;DHT22;7083;48.854;9.158;2024-02-15T02:08:51;8.10;99.90
14016;DHT22;7083;48.854;9.158;2024-02-15T02:11:17;8.00;99.90
14016;DHT22;7083;48.854;9.158;2024-02-15T02:13:43;7.90;99.90
14016;DHT22;7083;48.854;9.158;2024-02-15T02:16:24;7.80;99.90
14016;DHT22;7083;48.854;9.158;2024-02-15T02:18:51;7.80;99.90
14016;DHT22;7083;48.854;9.158;2024-02-15T02:21:18;7.70;99.90
14016;DHT22;7083;48.854;9.158;2024-02-15T02:23:48;7.70;99.90
14016;DHT22;7083;48.854;9.158;2024-02-15T02:26:20;7.70;99.90
14016;DHT22;7083;48.854;9.158;2024-02-15T02:28:47;7.60;99.90
14016;DHT22;7083;48.854;9.158;2024-02-15T02:31:14;7.60;99.90
14016;DHT22;7083;48.854;9.158;2024-02-15T02:33:41;7.60;99.90
14016;DHT22;7083;48.854;9.158;2024-02-15T02:36:10;7.60;99.90
14016;DHT22;7083;48.854;9.158;2024-02-15T02:38:37;7.60;99.90
14016;DHT22;7083;48.854;9.158;2024-02-15T02:41:05;7.60;99.90
14016;DHT22;7083;48.854;9.158;2024-02-15T02:43:34;7.50;99.90
14016;DHT22;7083;48.854;9.158;2024-02-15T02:46:00;7.50;99.90
14016;DHT22;7083;48.854;9.158;2024-02-15T02:48:27;7.50;99.90
14016;DHT22;7083;48.854;9.158;2024-02-15T02:50:54;7.40;99.90
14016;DHT22;7083;48.854;9.158;2024-02-15T02:53:21;7.30;99.90
14016;DHT22;7083;48.854;9.158;2024-02-15T02:55:47;7.30;99.90
14016;DHT22;7083;48.854;9.158;2024-02-15T02:58:14;7.30;99.90
14016;DHT22;7083;48.854;9.158;2024-02-15T03:00:42;7.30;99.90
14016;DHT22;7083;48.854;9.158;2024-02-15T03:03:09;7.20;99.90
14016;DHT22;7083;48.854;9.158;2024-02-15T03:05:35;7.20;99.90
14016;DHT22;7083;48.854;9.158;2024-02-15T03:08:02;7.10;99.90
14016;DHT22;7083;48.854;9.158;2024-02-15T03:10:29;7.00;99.90
14016;DHT22;7083;48.854;9.158;2024-02-15T03:12:56;6.90;99.90
14016;DHT22;7083;48.854;9.158;2024-02-15T03:15:23;6.90;99.90
14016;DHT22;7083;48.854;9.158;2024-02-15T03:17:51;6.80;99.90
14016;DHT22;7083;48.854;9.158;2024-02-15T03:20:18;6.70;99.90
14016;DHT22;7083;48.854;9.158;2024-02-15T03:22:53;6.70;99.90
14016;DHT22;7083;48.854;9.158;2024-02-15T03:25:20;6.70;99.90
14016;DHT22;7083;48.854;9.158;2024-02-15T03:27:49;6.70;99.90
14016;DHT22;7083;48.854;9.158;2024-02-15T03:30:17;6.70;99.90
14016;DHT22;7083;48.854;9.158;2024-02-15T03:32:44;6.70;99.90
14016;DHT22;7083;48.854;9.158;2024-02-15T03:35:13;6.80;99.90
14016;DHT22;7083;48.854;9.158;2024-02-15T03:37:39;6.80;99.90
14016;DHT22;7083;48.854;9.158;2024-02-15T03:40:07;7.00;99.90
14016;DHT22;7083;48.854;9.158;2024-02-15T03:42:34;7.00;99.90
14016;DHT22;7083;48.854;9.158;2024-02-15T03:45:02;7.10;99.90
14016;DHT22;7083;48.854;9.158;2024-02-15T03:47:29;7.20;99.90
14016;DHT22;7083;48.854;9.158;2024-02-15T03:49:55;7.20;99.90
14016;DHT22;7083;48.854;9.158;2024-02-15T03:52:23;7.30;99.90
14016;DHT22;7083;48.854;9.158;2024-02-15T03:54:50;7.40;99.90
14016;DHT22;7083;48.854;9.158;2024-02-15T03:57:17;7.40;99.90
14016;DHT22;7083;48.854;9.158;2024-02-15T03:59:46;7.50;99.90
14016;DHT22;7083;48.854;9.158;2024-02-15T04:02:16;7.60;99.90
14016;DHT22;7083;48.854;9.158;2024-02-15T04:04:42;7.60;99.90
14016;DHT22;7083;48.854;9.158;2024-02-15T04:07:12;7.70;99.90
14016;DHT22;7083;48.854;9.158;2024-02-15T04:09:41;7.70;99.90
14016;DHT22;7083;48.854;9.158;2024-02-15T04:12:08;7.80;99.90
14016;DHT22;7083;48.854;9.158;2024-02-15T04:14:35;7.80;99.90
14016;DHT22;7083;48.854;9.158;2024-02-15T04:17:03;7.90;99.90
14016;DHT22;7083;48.854;9.158;2024-02-15T04:19:30;8.00;99.90
14016;DHT22;7083;48.854;9.158;2024-02-15T04:21:57;8.00;99.90
14016;DHT22;7083;48.854;9.158;2024-02-15T04:24:25;8.00;99.90
14016;DHT22;7083;48.854;9.158;2024-02-15T04:26:53;8.10;99.90
14016;DHT22;7083;48.854;9.158;2024-02-15T04:29:20;8.10;99.90
14016;DHT22;7083;48.854;9.158;2024-02-15T04:31:47;8.10;99.90
14016;DHT22;7083;48.854;9.158;2024-02-15T04:34:14;8.20;99.90
14016;DHT22;7083;48.854;9.158;2024-02-15T04:36:43;8.20;99.90
14016;DHT22;7083;48.854;9.158;2024-02-15T04:39:10;8.20;99.90
14016;DHT22;7083;48.854;9.158;2024-02-15T04:41:49;9.10;99.90
14016;DHT22;7083;48.854;9.158;2024-02-15T04:44:17;8.30;99.90
14016;DHT22;7083;48.854;9.158;2024-02-15T04:46:45;8.30;99.90
14016;DHT22;7083;48.854;9.158;2024-02-15T04:49:12;8.30;99.90
14016;DHT22;7083;48.854;9.158;2024-02-15T04:51:39;8.40;99.90
14016;DHT22;7083;48.854;9.158;2024-02-15T04:54:06;8.40;99.90
14016;DHT22;7083;48.854;9.158;2024-02-15T04:56:34;8.40;99.90
14016;DHT22;7083;48.854;9.158;2024-02-15T04:59:01;8.50;99.90
14016;DHT22;7083;48.854;9.158;2024-02-15T05:01:29;8.50;99.90
14016;DHT22;7083;48.854;9.158;2024-02-15T05:03:58;8.50;99.90
14016;DHT22;7083;48.854;9.158;2024-02-15T05:06:25;8.60;99.90
14016;DHT22;7083;48.854;9.158;2024-02-15T05:08:55;8.60;99.90
14016;DHT22;7083;48.854;9.158;2024-02-15T05:11:23;8.70;99.90
14016;DHT22;7083;48.854;9.158;2024-02-15T05:13:49;8.80;99.90
14016;DHT22;7083;48.854;9.158;2024-02-15T05:16:17;8.90;99.90
14016;DHT22;7083;48.854;9.158;2024-02-15T05:18:46;9.00;99.90
14016;DHT22;7083;48.854;9.158;2024-02-15T05:21:12;9.20;99.90
14016;DHT22;7083;48.854;9.158;2024-02-15T05:23:39;9.40;99.90
14016;DHT22;7083;48.854;9.158;2024-02-15T05:26:08;9.50;99.90
14016;DHT22;7083;48.854;9.158;2024-02-15T05:28:35;9.60;99.90
14016;DHT22;7083;48.854;9.158;2024-02-15T05:31:10;9.60;99.90
14016;DHT22;7083;48.854;9.158;2024-02-15T05:33:37;9.70;99.90
14016;DHT22;7083;48.854;9.158;2024-02-15T05:36:07;9.80;99.90
14016;DHT22;7083;48.854;9.158;2024-02-15T05:38:34;9.90;99.90
14016;DHT22;7083;48.854;9.158;2024-02-15T05:41:01;9.90;99.90
14016;DHT22;7083;48.854;9.158;2024-02-15T05:43:28;10.00;99.90
14016;DHT22;7083;48.854;9.158;2024-02-15T05:45:55;10.00;99.90
14016;DHT22;7083;48.854;9.158;2024-02-15T05:48:23;10.00;99.90
14016;DHT22;7083;48.854;9.158;2024-02-15T05:50:50;10.00;99.90
14016;DHT22;7083;48.854;9.158;2024-02-15T05:53:18;10.00;99.90
14016;DHT22;7083;48.854;9.158;2024-02-15T05:55:44;10.00;99.90
14016;DHT22;7083;48.854;9.158;2024-02-15T05:58:11;10.00;99.90
14016;DHT22;7083;48.854;9.158;2024-02-15T06:00:39;9.90;99.90
14016;DHT22;7083;48.854;9.158;2024-02-15T06:03:06;9.90;99.90
14016;DHT22;7083;48.854;9.158;2024-02-15T06:05:34;9.90;99.90
14016;DHT22;7083;48.854;9.158;2024-02-15T06:08:01;9.90;99.90
14016;DHT22;7083;48.854;9.158;2024-02-15T06:10:29;9.90;99.90
14016;DHT22;7083;48.854;9.158;2024-02-15T06:12:56;9.90;99.90
14016;DHT22;7083;48.854;9.158;2024-02-15T06:15:23;9.80;99.90
14016;DHT22;7083;48.854;9.158;2024-02-15T06:17:50;9.80;99.90
14016;DHT22;7083;48.854;9.158;2024-02-15T06:20:17;11.90;99.90
14016;DHT22;7083;48.854;9.158;2024-02-15T06:22:45;9.80;99.90
14016;DHT22;7083;48.854;9.158;2024-02-15T06:25:12;9.80;99.90
14016;DHT22;7083;48.854;9.158;2024-02-15T06:27:41;9.80;99.90
14016;DHT22;7083;48.854;9.158;2024-02-15T06:30:09;9.80;99.90
14016;DHT22;7083;48.854;9.158;2024-02-15T06:32:54;9.80;99.90
14016;DHT22;7083;48.854;9.158;2024-02-15T06:35:38;9.70;99.90
14016;DHT22;7083;48.854;9.158;2024-02-15T06:38:23;9.70;99.90
14016;DHT22;7083;48.854;9.158;2024-02-15T06:41:07;9.70;99.90
14016;DHT22;7083;48.854;9.158;2024-02-15T06:43:35;9.70;99.90
14016;DHT22;7083;48.854;9.158;2024-02-15T06:46:05;9.70;99.90
14016;DHT22;7083;48.854;9.158;2024-02-15T06:48:32;9.70;99.90
14016;DHT22;7083;48.854;9.158;2024-02-15T06:50:59;9.60;99.90
14016;DHT22;7083;48.854;9.158;2024-02-15T06:53:26;9.60;99.90
14016;DHT22;7083;48.854;9.158;2024-02-15T06:55:52;9.70;99.90
14016;DHT22;7083;48.854;9.158;2024-02-15T06:58:19;9.70;99.90
14016;DHT22;7083;48.854;9.158;2024-02-15T07:00:48;9.70;99.90
14016;DHT22;7083;48.854;9.158;2024-02-15T07:03:15;9.70;99.90
14016;DHT22;7083;48.854;9.158;2024-02-15T07:05:42;9.70;99.90
14016;DHT22;7083;48.854;9.158;2024-02-15T07:08:09;9.80;99.90
14016;DHT22;7083;48.854;9.158;2024-02-15T07:10:37;9.80;99.90
14016;DHT22;7083;48.854;9.158;2024-02-15T07:13:05;9.80;99.90
14016;DHT22;7083;48.854;9.158;2024-02-15T07:15:32;9.90;99.90
14016;DHT22;7083;48.854;9.158;2024-02-15T07:18:05;10.00;99.90
14016;DHT22;7083;48.854;9.158;2024-02-15T07:20:32;10.10;99.90
14016;DHT22;7083;48.854;9.158;2024-02-15T07:22:59;10.10;99.90
14016;DHT22;7083;48.854;9.158;2024-02-15T07:25:26;10.20;99.90
14016;DHT22;7083;48.854;9.158;2024-02-15T07:27:52;10.20;99.90
14016;DHT22;7083;48.854;9.158;2024-02-15T07:30:19;10.20;99.90
14016;DHT22;7083;48.854;9.158;2024-02-15T07:32:46;10.20;99.90
14016;DHT22;7083;48.854;9.158;2024-02-15T07:35:14;10.10;99.90
14016;DHT22;7083;48.854;9.158;2024-02-15T07:37:51;10.10;99.90
14016;DHT22;7083;48.854;9.158;2024-02-15T07:40:18;10.10;99.90
14016;DHT22;7083;48.854;9.158;2024-02-15T07:42:47;10.20;99.90
14016;DHT22;7083;48.854;9.158;2024-02-15T07:45:14;10.30;99.90
14016;DHT22;7083;48.854;9.158;2024-02-15T07:47:41;10.40;99.90
14016;DHT22;7083;48.854;9.158;2024-02-15T07:50:09;10.50;99.90
14016;DHT22;7083;48.854;9.158;2024-02-15T07:52:37;10.70;99.90
14016;DHT22;7083;48.854;9.158;2024-02-15T07:55:04;10.80;99.90
14016;DHT22;7083;48.854;9.158;2024-02-15T07:57:34;10.90;99.90
14016;DHT22;7083;48.854;9.158;2024-02-15T08:00:01;11.00;99.90
14016;DHT22;7083;48.854;9.158;2024-02-15T08:02:30;11.20;99.90
14016;DHT22;7083;48.854;9.158;2024-02-15T08:04:57;11.20;99.90
14016;DHT22;7083;48.854;9.158;2024-02-15T08:07:24;11.20;99.90
14016;DHT22;7083;48.854;9.158;2024-02-15T08:09:57;11.30;99.90
14016;DHT22;7083;48.854;9.158;2024-02-15T08:12:25;11.40;99.90
14016;DHT22;7083;48.854;9.158;2024-02-15T08:14:51;11.40;99.90
14016;DHT22;7083;48.854;9.158;2024-02-15T08:17:18;11.50;99.90
14016;DHT22;7083;48.854;9.158;2024-02-15T08:19:45;11.60;99.90
14016;DHT22;7083;48.854;9.158;2024-02-15T08:22:11;11.60;99.90
14016;DHT22;7083;48.854;9.158;2024-02-15T08:24:38;11.60;99.90
14016;DHT22;7083;48.854;9.158;2024-02-15T08:27:06;11.70;99.90
14016;DHT22;7083;48.854;9.158;2024-02-15T08:29:33;11.80;99.90
14016;DHT22;7083;48.854;9.158;2024-02-15T08:32:00;11.90;99.90
14016;DHT22;7083;48.854;9.158;2024-02-15T08:34:27;12.10;99.90
14016;DHT22;7083;48.854;9.158;2024-02-15T08:36:54;12.20;99.90
14016;DHT22;7083;48.854;9.158;2024-02-15T08:39:20;12.40;99.90
14016;DHT22;7083;48.854;9.158;2024-02-15T08:41:50;12.60;99.90
14016;DHT22;7083;48.854;9.158;2024-02-15T08:44:20;12.70;99.90
14016;DHT22;7083;48.854;9.158;2024-02-15T08:46:47;12.70;99.90
14016;DHT22;7083;48.854;9.158;2024-02-15T08:49:14;12.80;99.90
14016;DHT22;7083;48.854;9.158;2024-02-15T08:51:41;12.90;99.90
14016;DHT22;7083;48.854;9.158;2024-02-15T08:54:07;12.90;99.90
14016;DHT22;7083;48.854;9.158;2024-02-15T08:56:35;12.80;99.90
14016;DHT22;7083;48.854;9.158;2024-02-15T08:59:02;12.80;99.90
14016;DHT22;7083;48.854;9.158;2024-02-15T09:01:30;12.70;99.90
14016;DHT22;7083;48.854;9.158;2024-02-15T09:03:57;12.70;99.90
14016;DHT22;7083;48.854;9.158;2024-02-15T09:06:24;12.80;99.90
14016;DHT22;7083;48.854;9.158;2024-02-15T09:08:51;12.80;99.90
14016;DHT22;7083;48.854;9.158;2024-02-15T09:11:18;12.80;99.90
14016;DHT22;7083;48.854;9.158;2024-02-15T09:13:44;12.70;99.90
14016;DHT22;7083;48.854;9.158;2024-02-15T09:16:12;12.70;99.90
14016;DHT22;7083;48.854;9.158;2024-02-15T09:18:40;12.70;99.90
14016;DHT22;7083;48.854;9.158;2024-02-15T09:21:10;12.60;99.90
14016;DHT22;7083;48.854;9.158;2024-02-15T09:23:37;12.60;99.90
14016;DHT22;7083;48.854;9.158;2024-02-15T09:26:04;12.60;99.90
14016;DHT22;7083;48.854;9.158;2024-02-15T09:28:31;12.50;99.90
14016;DHT22;7083;48.854;9.158;2024-02-15T09:30:58;12.50;99.90
14016;DHT22;7083;48.854;9.158;2024-02-15T09:33:27;12.50;99.90
14016;DHT22;7083;48.854;9.158;2024-02-15T09:35:55;12.50;99.90
14016;DHT22;7083;48.854;9.158;2024-02-15T09:38:21;12.40;99.90
14016;DHT22;7083;48.854;9.158;2024-02-15T09:40:50;12.40;99.90
14016;DHT22;7083;48.854;9.158;2024-02-15T09:43:17;12.40;99.90
14016;DHT22;7083;48.854;9.158;2024-02-15T09:45:44;12.40;99.90
14016;DHT22;7083;48.854;9.158;2024-02-15T09:48:11;12.40;99.90
14016;DHT22;7083;48.854;9.158;2024-02-15T09:50:39;12.40;99.90
14016;DHT22;7083;48.854;9.158;2024-02-15T09:53:09;12.40;99.90
14016;DHT22;7083;48.854;9.158;2024-02-15T09:55:36;12.40;99.90
14016;DHT22;7083;48.854;9.158;2024-02-15T09:58:07;12.40;99.90
14016;DHT22;7083;48.854;9.158;2024-02-15T10:00:34;12.50;99.90
14016;DHT22;7083;48.854;9.158;2024-02-15T10:03:02;12.40;99.90
14016;DHT22;7083;48.854;9.158;2024-02-15T10:05:31;12.50;99.90
14016;DHT22;7083;48.854;9.158;2024-02-15T10:07:58;12.50;99.90
14016;DHT22;7083;48.854;9.158;2024-02-15T10:10:27;12.50;99.90
14016;DHT22;7083;48.854;9.158;2024-02-15T10:12:55;12.60;99.90
14016;DHT22;7083;48.854;9.158;2024-02-15T10:15:29;12.60;99.90
14016;DHT22;7083;48.854;9.158;2024-02-15T10:17:57;12.60;99.90
14016;DHT22;7083;48.854;9.158;2024-02-15T10:20:24;12.70;99.90
14016;DHT22;7083;48.854;9.158;2024-02-15T10:22:52;12.70;99.90
14016;DHT22;7083;48.854;9.158;2024-02-15T10:25:20;12.80;99.90
14016;DHT22;7083;48.854;9.158;2024-02-15T10:27:49;12.90;99.90
14016;DHT22;7083;48.854;9.158;2024-02-15T10:30:17;12.90;99.90
14016;DHT22;7083;48.854;9.158;2024-02-15T10:32:44;13.00;99.90
14016;DHT22;7083;48.854;9.158;2024-02-15T10:35:10;13.10;99.90
14016;DHT22;7083;48.854;9.158;2024-02-15T10:37:45;13.20;99.90
14016;DHT22;7083;48.854;9.158;2024-02-15T10:40:13;13.30;99.90
14016;DHT22;7083;48.854;9.158;2024-02-15T10:42:40;13.40;99.90
14016;DHT22;7083;48.854;9.158;2024-02-15T10:45:10;13.50;99.90
14016;DHT22;7083;48.854;9.158;2024-02-15T10:47:38;13.50;99.80
14016;DHT22;7083;48.854;9.158;2024-02-15T10:50:06;13.50;99.60
14016;DHT22;7083;48.854;9.158;2024-02-15T10:52:37;13.50;99.20
14016;DHT22;7083;48.854;9.158;2024-02-15T10:55:08;13.50;98.90
14016;DHT22;7083;48.854;9.158;2024-02-15T10:57:40;13.60;99.20
14016;DHT22;7083;48.854;9.158;2024-02-15T11:00:14;13.70;98.80
14016;DHT22;7083;48.854;9.158;2024-02-15T11:03:02;13.70;97.90
14016;DHT22;7083;48.854;9.158;2024-02-15T11:05:32;13.80;97.70
14016;DHT22;7083;48.854;9.158;2024-02-15T11:08:02;13.80;97.60
14016;DHT22;7083;48.854;9.158;2024-02-15T11:10:30;13.80;97.90
14016;DHT22;7083;48.854;9.158;2024-02-15T11:12:57;13.90;97.60
14016;DHT22;7083;48.854;9.158;2024-02-15T11:15:47;14.00;97.10
14016;DHT22;7083;48.854;9.158;2024-02-15T11:18:44;14.10;96.90
14016;DHT22;7083;48.854;9.158;2024-02-15T11:21:14;14.10;96.80
14016;DHT22;7083;48.854;9.158;2024-02-15T11:23:41;14.20;96.70
14016;DHT22;7083;48.854;9.158;2024-02-15T11:26:42;14.30;95.60
14016;DHT22;7083;48.854;9.158;2024-02-15T11:29:10;14.50;95.20
14016;DHT22;7083;48.854;9.158;2024-02-15T11:31:58;14.60;94.60
14016;DHT22;7083;48.854;9.158;2024-02-15T11:34:44;14.80;94.40
14016;DHT22;7083;48.854;9.158;2024-02-15T11:40:18;15.10;93.90
14016;DHT22;7083;48.854;9.158;2024-02-15T11:42:46;15.20;93.50
14016;DHT22;7083;48.854;9.158;2024-02-15T11:45:13;15.40;93.10
14016;DHT22;7083;48.854;9.158;2024-02-15T11:47:47;15.50;92.90
14016;DHT22;7083;48.854;9.158;2024-02-15T11:50:16;15.50;92.60
14016;DHT22;7083;48.854;9.158;2024-02-15T11:52:43;15.60;92.40
14016;DHT22;7083;48.854;9.158;2024-02-15T11:55:11;15.70;92.00
14016;DHT22;7083;48.854;9.158;2024-02-15T11:57:39;15.80;92.30
14016;DHT22;7083;48.854;9.158;2024-02-15T12:00:23;15.90;92.50
14016;DHT22;7083;48.854;9.158;2024-02-15T12:03:09;15.90;91.90
14016;DHT22;7083;48.854;9.158;2024-02-15T12:05:54;16.00;91.70
14016;DHT22;7083;48.854;9.158;2024-02-15T12:08:38;16.20;91.70
14016;DHT22;7083;48.854;9.158;2024-02-15T12:11:22;16.30;92.30
14016;DHT22;7083;48.854;9.158;2024-02-15T12:14:06;16.50;91.80
14016;DHT22;7083;48.854;9.158;2024-02-15T12:17:04;16.60;91.00
14016;DHT22;7083;48.854;9.158;2024-02-15T12:19:50;16.60;90.20
14016;DHT22;7083;48.854;9.158;2024-02-15T12:22:21;16.70;90.60
14016;DHT22;7083;48.854;9.158;2024-02-15T12:24:58;16.80;90.90
14016;DHT22;7083;48.854;9.158;2024-02-15T12:27:25;17.00;90.60
14016;DHT22;7083;48.854;9.158;2024-02-15T12:29:54;17.20;90.20
14016;DHT22;7083;48.854;9.158;2024-02-15T12:32:22;17.40;88.50
14016;DHT22;7083;48.854;9.158;2024-02-15T12:34:50;17.50;87.90
14016;DHT22;7083;48.854;9.158;2024-02-15T12:37:18;17.90;88.60
14016;DHT22;7083;48.854;9.158;2024-02-15T12:39:46;18.10;87.30
14016;DHT22;7083;48.854;9.158;2024-02-15T12:42:13;18.10;87.90
14016;DHT22;7083;48.854;9.158;2024-02-15T12:44:44;18.20;86.90
14016;DHT22;7083;48.854;9.158;2024-02-15T12:47:19;18.30;85.20
14016;DHT22;7083;48.854;9.158;2024-02-15T12:49:47;18.40;85.50
14016;DHT22;7083;48.854;9.158;2024-02-15T12:52:36;18.30;84.90
14016;DHT22;7083;48.854;9.158;2024-02-15T12:55:11;18.30;85.40
14016;DHT22;7083;48.854;9.158;2024-02-15T12:57:39;18.30;83.20
14016;DHT22;7083;48.854;9.158;2024-02-15T13:00:11;18.30;83.20
14016;DHT22;7083;48.854;9.158;2024-02-15T13:02:43;18.30;85.50
14016;DHT22;7083;48.854;9.158;2024-02-15T13:05:10;18.30;85.50
14016;DHT22;7083;48.854;9.158;2024-02-15T13:07:38;18.40;83.90
14016;DHT22;7083;48.854;9.158;2024-02-15T13:10:06;18.50;83.30
14016;DHT22;7083;48.854;9.158;2024-02-15T13:12:34;18.50;83.10
14016;DHT22;7083;48.854;9.158;2024-02-15T13:15:02;18.50;82.20
14016;DHT22;7083;48.854;9.158;2024-02-15T13:17:29;18.50;82.50
14016;DHT22;7083;48.854;9.158;2024-02-15T13:19:56;18.50;83.30
14016;DHT22;7083;48.854;9.158;2024-02-15T13:22:30;18.50;83.80
14016;DHT22;7083;48.854;9.158;2024-02-15T13:24:58;18.60;83.20
14016;DHT22;7083;48.854;9.158;2024-02-15T13:27:25;18.50;83.20
14016;DHT22;7083;48.854;9.158;2024-02-15T13:29:52;18.50;82.40
14016;DHT22;7083;48.854;9.158;2024-02-15T13:32:20;18.50;82.70
14016;DHT22;7083;48.854;9.158;2024-02-15T13:34:47;18.50;83.90
14016;DHT22;7083;48.854;9.158;2024-02-15T13:37:17;18.50;84.00
14016;DHT22;7083;48.854;9.158;2024-02-15T13:39:46;18.60;84.30
14016;DHT22;7083;48.854;9.158;2024-02-15T13:42:14;18.70;83.40
14016;DHT22;7083;48.854;9.158;2024-02-15T13:44:42;18.70;82.90
14016;DHT22;7083;48.854;9.158;2024-02-15T13:47:09;18.80;82.30
14016;DHT22;7083;48.854;9.158;2024-02-15T13:49:37;18.90;82.80
14016;DHT22;7083;48.854;9.158;2024-02-15T13:52:04;19.00;82.20
14016;DHT22;7083;48.854;9.158;2024-02-15T13:54:32;19.00;82.30
14016;DHT22;7083;48.854;9.158;2024-02-15T13:56:59;19.10;82.20
14016;DHT22;7083;48.854;9.158;2024-02-15T13:59:28;19.10;80.80
14016;DHT22;7083;48.854;9.158;2024-02-15T14:01:55;19.00;82.20
14016;DHT22;7083;48.854;9.158;2024-02-15T14:04:22;19.00;82.30
14016;DHT22;7083;48.854;9.158;2024-02-15T14:06:49;19.00;81.00
14016;DHT22;7083;48.854;9.158;2024-02-15T14:09:15;19.00;81.00
14016;DHT22;7083;48.854;9.158;2024-02-15T14:11:43;19.00;81.00
14016;DHT22;7083;48.854;9.158;2024-02-15T14:14:09;18.90;80.80
14016;DHT22;7083;48.854;9.158;2024-02-15T14:16:37;18.80;80.80
14016;DHT22;7083;48.854;9.158;2024-02-15T14:19:04;18.80;81.40
14016;DHT22;7083;48.854;9.158;2024-02-15T14:21:31;18.80;82.50
14016;DHT22;7083;48.854;9.158;2024-02-15T14:24:05;18.70;82.70
14016;DHT22;7083;48.854;9.158;2024-02-15T14:26:34;18.70;82.70
14016;DHT22;7083;48.854;9.158;2024-02-15T14:29:01;18.70;82.30
14016;DHT22;7083;48.854;9.158;2024-02-15T14:31:28;18.80;82.60
14016;DHT22;7083;48.854;9.158;2024-02-15T14:34:25;18.80;81.80
14016;DHT22;7083;48.854;9.158;2024-02-15T14:36:52;18.80;82.50
14016;DHT22;7083;48.854;9.158;2024-02-15T14:39:18;18.90;80.40
14016;DHT22;7083;48.854;9.158;2024-02-15T14:41:47;18.80;81.00
14016;DHT22;7083;48.854;9.158;2024-02-15T14:44:13;18.70;81.80
14016;DHT22;7083;48.854;9.158;2024-02-15T14:46:40;18.80;81.20
14016;DHT22;7083;48.854;9.158;2024-02-15T14:49:07;18.80;81.10
14016;DHT22;7083;48.854;9.158;2024-02-15T14:51:36;18.70;81.80
14016;DHT22;7083;48.854;9.158;2024-02-15T14:54:04;18.60;82.30
14016;DHT22;7083;48.854;9.158;2024-02-15T14:56:31;18.60;81.50
14016;DHT22;7083;48.854;9.158;2024-02-15T14:58:58;18.50;81.70
14016;DHT22;7083;48.854;9.158;2024-02-15T15:01:25;18.50;82.00
14016;DHT22;7083;48.854;9.158;2024-02-15T15:03:56;18.50;81.80
14016;DHT22;7083;48.854;9.158;2024-02-15T15:06:24;18.50;82.60
14016;DHT22;7083;48.854;9.158;2024-02-15T15:09:09;18.50;83.10
14016;DHT22;7083;48.854;9.158;2024-02-15T15:11:54;18.50;83.20
14016;DHT22;7083;48.854;9.158;2024-02-15T15:14:38;18.50;82.50
14016;DHT22;7083;48.854;9.158;2024-02-15T15:17:06;18.50;81.90
14016;DHT22;7083;48.854;9.158;2024-02-15T15:19:32;18.40;81.60
14016;DHT22;7083;48.854;9.158;2024-02-15T15:21:59;18.40;82.50
14016;DHT22;7083;48.854;9.158;2024-02-15T15:24:28;18.30;82.20
14016;DHT22;7083;48.854;9.158;2024-02-15T15:26:54;18.20;81.90
14016;DHT22;7083;48.854;9.158;2024-02-15T15:29:21;18.00;81.90
14016;DHT22;7083;48.854;9.158;2024-02-15T15:31:48;18.00;83.00
14016;DHT22;7083;48.854;9.158;2024-02-15T15:34:15;17.90;83.60
14016;DHT22;7083;48.854;9.158;2024-02-15T15:36:42;17.70;84.10
14016;DHT22;7083;48.854;9.158;2024-02-15T15:39:08;17.70;84.30
14016;DHT22;7083;48.854;9.158;2024-02-15T15:41:37;17.60;84.40
14016;DHT22;7083;48.854;9.158;2024-02-15T15:44:04;18.20;85.40
14016;DHT22;7083;48.854;9.158;2024-02-15T15:46:31;18.10;85.50
14016;DHT22;7083;48.854;9.158;2024-02-15T15:48:59;17.20;85.50
14016;DHT22;7083;48.854;9.158;2024-02-15T15:51:26;17.10;86.00
14016;DHT22;7083;48.854;9.158;2024-02-15T15:53:53;17.00;86.40
14016;DHT22;7083;48.854;9.158;2024-02-15T15:56:20;16.90;86.70
14016;DHT22;7083;48.854;9.158;2024-02-15T15:58:48;16.80;87.10
14016;DHT22;7083;48.854;9.158;2024-02-15T16:01:15;16.70;87.20
14016;DHT22;7083;48.854;9.158;2024-02-15T16:03:42;16.50;87.60
14016;DHT22;7083;48.854;9.158;2024-02-15T16:06:11;16.40;87.90